Time;durP1;ratioP1;P1;durP2;ratioP2;P2;SDS_P1;SDS_P2;PMS_P1;PMS_P2;Temp;Humidity;BMP_temperature;BMP_pressure;BME280_temperature;BME280_humidity;BME280_pressure;Samples;Min_cycle;Max_cycle;Signal;HPM_P1;HPM_P2
2022/02/15 00:00:29;;;;;;;9.02;2.53;;;7.30;99.90;;;;;;5114977;28;20023;-74
2022/02/15 00:02:55;;;;;;;13.20;2.60;;;7.30;99.90;;;;;;5114666;28;20481;-74
2022/02/15 00:05:21;;;;;;;16.13;3.10;;;7.30;99.90;;;;;;5114726;28;20042;-73
2022/02/15 00:07:46;;;;;;;8.95;2.53;;;7.30;99.90;;;;;;5114800;28;20385;-74
2022/02/15 00:10:12;;;;;;;11.30;2.95;;;7.20;99.90;;;;;;5114960;28;20035;-74
2022/02/15 00:12:39;;;;;;;7.75;2.55;;;7.20;99.90;;;;;;5115024;28;20015;-72
2022/02/15 00:15:07;;;;;;;9.45;2.45;;;7.20;99.90;;;;;;5115248;28;20020;-74
2022/02/15 00:17:37;;;;;;;8.02;1.92;;;7.30;99.90;;;;;;5113339;28;20035;-75
2022/02/15 00:20:04;;;;;;;6.90;2.90;;;7.30;99.90;;;;;;5114730;28;20038;-73
2022/02/15 00:22:30;;;;;;;8.25;2.35;;;7.20;99.90;;;;;;5115084;28;20016;-74
2022/02/15 00:24:56;;;;;;;10.55;2.53;;;7.20;99.90;;;;;;5115058;28;20027;-72
2022/02/15 00:27:22;;;;;;;12.02;2.70;;;7.20;99.90;;;;;;5114446;28;20535;-76
2022/02/15 00:29:48;;;;;;;10.52;2.70;;;7.20;99.90;;;;;;5114364;28;20024;-74
2022/02/15 00:32:14;;;;;;;13.45;2.40;;;7.20;99.90;;;;;;5114324;28;20085;-74
2022/02/15 00:34:39;;;;;;;9.40;2.67;;;7.20;99.90;;;;;;5114281;28;20073;-74
2022/02/15 00:37:05;;;;;;;8.90;2.35;;;7.20;99.90;;;;;;5114219;28;20102;-74
2022/02/15 00:39:31;;;;;;;12.40;3.83;;;7.20;99.90;;;;;;5113913;28;20080;-76
2022/02/15 00:41:56;;;;;;;8.05;3.33;;;7.20;99.90;;;;;;5114185;28;20027;-74
2022/02/15 00:44:22;;;;;;;5.90;2.13;;;7.20;99.90;;;;;;5113866;28;20042;-73
2022/02/15 00:46:49;;;;;;;10.70;2.50;;;7.20;99.90;;;;;;5114085;28;20427;-75
2022/02/15 00:49:14;;;;;;;12.38;3.15;;;7.20;99.90;;;;;;5114031;28;20119;-74
2022/02/15 00:51:40;;;;;;;6.40;2.00;;;7.20;99.90;;;;;;5114341;28;20103;-74
2022/02/15 00:54:06;;;;;;;8.13;2.10;;;7.10;99.90;;;;;;5113906;28;20016;-75
2022/02/15 00:56:31;;;;;;;8.85;1.77;;;7.20;99.90;;;;;;5113961;28;20027;-75
2022/02/15 00:58:57;;;;;;;10.32;2.90;;;7.10;99.90;;;;;;5114163;28;20020;-76
2022/02/15 01:01:23;;;;;;;9.07;2.28;;;7.10;99.90;;;;;;5113857;28;20063;-73
2022/02/15 01:03:49;;;;;;;10.20;2.90;;;7.00;99.90;;;;;;5113685;28;20526;-73
2022/02/15 01:06:15;;;;;;;8.88;1.80;;;7.00;99.90;;;;;;5114333;28;20031;-74
2022/02/15 01:08:42;;;;;;;7.10;2.47;;;7.00;99.90;;;;;;5114029;28;20027;-73
2022/02/15 01:11:09;;;;;;;9.20;2.03;;;6.90;99.90;;;;;;5113709;28;20072;-74
2022/02/15 01:13:35;;;;;;;13.93;2.67;;;6.90;99.90;;;;;;5113686;28;20068;-74
2022/02/15 01:16:01;;;;;;;8.60;2.42;;;6.90;99.90;;;;;;5113711;28;20031;-74
2022/02/15 01:18:28;;;;;;;8.95;2.15;;;6.90;99.90;;;;;;5113710;28;20016;-74
2022/02/15 01:20:54;;;;;;;9.20;2.10;;;6.90;99.90;;;;;;5114183;28;20054;-73
2022/02/15 01:23:20;;;;;;;11.93;2.30;;;6.90;99.90;;;;;;5113614;28;20058;-75
2022/02/15 01:25:46;;;;;;;10.32;2.45;;;6.90;99.90;;;;;;5113884;28;20030;-75
2022/02/15 01:28:12;;;;;;;6.97;1.90;;;6.90;99.90;;;;;;5113561;28;20398;-74
2022/02/15 01:30:37;;;;;;;12.73;2.63;;;7.00;99.90;;;;;;5113413;28;20067;-74
2022/02/15 01:33:03;;;;;;;6.07;2.03;;;6.90;99.90;;;;;;5115600;28;20031;-74
2022/02/15 01:35:29;;;;;;;10.32;2.53;;;6.90;99.90;;;;;;5117737;28;20031;-74
2022/02/15 01:37:55;;;;;;;11.00;2.40;;;6.80;99.90;;;;;;5117672;28;20520;-74
2022/02/15 01:40:21;;;;;;;10.98;2.40;;;6.80;99.90;;;;;;5116412;28;20447;-75
2022/02/15 01:42:46;;;;;;;9.18;2.40;;;6.80;99.90;;;;;;5117644;28;20027;-74
2022/02/15 01:45:13;;;;;;;8.63;2.33;;;6.80;99.90;;;;;;5116303;28;20404;-73
2022/02/15 01:47:39;;;;;;;7.45;1.90;;;6.80;99.90;;;;;;5117556;28;20039;-75
2022/02/15 01:50:06;;;;;;;8.75;2.60;;;6.80;99.90;;;;;;5117709;28;20059;-75
2022/02/15 01:52:32;;;;;;;8.65;2.60;;;6.90;99.90;;;;;;5117712;28;20473;-75
2022/02/15 01:54:59;;;;;;;9.82;2.45;;;6.80;99.90;;;;;;5117377;28;20100;-74
2022/02/15 01:57:25;;;;;;;10.43;2.28;;;6.80;99.90;;;;;;5117620;28;20030;-74
2022/02/15 01:59:55;;;;;;;8.43;1.90;;;6.80;99.90;;;;;;5117342;28;20529;-74
2022/02/15 02:02:26;;;;;;;7.50;2.25;;;6.80;99.90;;;;;;5117413;28;20080;-75
2022/02/15 02:07:36;;;;;;;8.82;2.00;;;6.90;99.90;;;;;;5117479;28;19917;-74
2022/02/15 02:10:03;;;;;;;14.00;1.90;;;6.80;99.90;;;;;;5117048;28;20024;-74
2022/02/15 02:12:29;;;;;;;8.23;1.80;;;6.80;99.90;;;;;;5115807;28;20015;-75
2022/02/15 02:15:02;;;;;;;12.70;2.00;;;6.80;99.90;;;;;;5117585;28;20024;-74
2022/02/15 02:17:28;;;;;;;8.30;1.95;;;6.90;99.90;;;;;;5117317;28;20487;-74
2022/02/15 02:19:54;;;;;;;8.77;1.80;;;6.80;99.90;;;;;;5116918;28;20094;-74
2022/02/15 02:22:25;;;;;;;10.18;1.83;;;6.80;99.90;;;;;;5116914;28;20032;-75
2022/02/15 02:24:52;;;;;;;8.45;1.80;;;6.80;99.90;;;;;;5117168;28;20537;-75
2022/02/15 02:27:25;;;;;;;6.43;1.75;;;6.80;99.90;;;;;;5116810;28;20496;-73
2022/02/15 02:29:51;;;;;;;7.38;2.05;;;6.80;99.90;;;;;;5116690;28;20023;-73
2022/02/15 02:32:21;;;;;;;10.35;2.03;;;6.80;99.90;;;;;;5117307;28;20035;-75
2022/02/15 02:34:47;;;;;;;11.38;2.42;;;6.80;99.90;;;;;;5116700;28;20016;-75
2022/02/15 02:37:13;;;;;;;6.78;1.77;;;6.70;99.90;;;;;;5115361;28;20037;-74
2022/02/15 02:39:47;;;;;;;7.82;2.40;;;6.80;99.90;;;;;;5116858;28;20019;-74
2022/02/15 02:42:14;;;;;;;9.40;1.73;;;6.80;99.90;;;;;;5117116;28;20032;-72
2022/02/15 02:44:40;;;;;;;10.57;2.45;;;6.70;99.90;;;;;;5115060;27;20362;-74
2022/02/15 02:47:06;;;;;;;8.35;2.22;;;6.70;99.90;;;;;;5116441;28;20054;-74
2022/02/15 02:49:33;;;;;;;8.95;2.05;;;6.70;99.90;;;;;;5116575;28;20027;-73
2022/02/15 02:52:00;;;;;;;9.75;1.80;;;6.70;99.90;;;;;;5116836;28;20028;-74
2022/02/15 02:54:26;;;;;;;13.00;1.92;;;6.70;99.90;;;;;;5116465;28;20020;-74
2022/02/15 02:56:53;;;;;;;7.53;2.58;;;6.70;99.90;;;;;;5116296;28;20027;-74
2022/02/15 02:59:19;;;;;;;8.02;1.80;;;6.60;99.90;;;;;;5116175;28;20023;-75
2022/02/15 03:01:45;;;;;;;7.88;1.67;;;6.60;99.90;;;;;;5116371;28;20103;-73
2022/02/15 03:04:11;;;;;;;8.32;2.72;;;6.60;99.90;;;;;;5115882;28;20540;-75
2022/02/15 03:06:36;;;;;;;5.57;1.92;;;6.60;99.90;;;;;;5116268;28;20051;-74
2022/02/15 03:09:03;;;;;;;12.55;2.17;;;6.60;99.90;;;;;;5115974;28;20386;-75
2022/02/15 03:11:29;;;;;;;8.48;1.80;;;6.60;99.90;;;;;;5116156;28;20469;-74
2022/02/15 03:13:55;;;;;;;10.15;2.15;;;6.60;99.90;;;;;;5115866;28;20098;-75
2022/02/15 03:16:24;;;;;;;10.55;2.25;;;6.70;99.90;;;;;;5115837;28;20027;-73
2022/02/15 03:18:49;;;;;;;7.72;2.30;;;6.60;99.90;;;;;;5115747;28;20106;-75
2022/02/15 03:21:15;;;;;;;10.43;2.25;;;6.60;99.90;;;;;;5116333;28;20110;-74
2022/02/15 03:23:42;;;;;;;10.40;2.75;;;6.60;99.90;;;;;;5115957;28;20020;-74
2022/02/15 03:26:08;;;;;;;8.10;2.47;;;6.60;99.90;;;;;;5114379;28;20447;-74
2022/02/15 03:28:34;;;;;;;10.57;2.35;;;6.50;99.90;;;;;;5115567;28;20024;-74
2022/02/15 03:31:00;;;;;;;8.30;2.33;;;6.50;99.90;;;;;;5115551;28;20072;-74
2022/02/15 03:33:26;;;;;;;5.75;2.00;;;6.50;99.90;;;;;;5115574;28;20367;-75
2022/02/15 03:35:52;;;;;;;10.75;3.25;;;6.50;99.90;;;;;;5115486;28;20051;-74
2022/02/15 03:38:18;;;;;;;9.48;2.38;;;6.50;99.90;;;;;;5115485;28;20011;-75
2022/02/15 03:43:28;;;;;;;15.18;2.20;;;6.60;99.90;;;;;;5115629;28;20432;-74
2022/02/15 03:45:54;;;;;;;12.93;1.83;;;6.60;99.90;;;;;;5115249;28;20023;-74
2022/02/15 03:48:19;;;;;;;8.80;2.42;;;6.70;99.90;;;;;;5115499;28;20022;-74
2022/02/15 03:50:45;;;;;;;10.05;2.20;;;6.70;99.90;;;;;;5115362;28;20035;-75
2022/02/15 03:53:12;;;;;;;13.02;3.28;;;6.70;99.90;;;;;;5115117;28;20024;-75
2022/02/15 03:55:38;;;;;;;17.88;2.70;;;6.70;99.90;;;;;;5114606;28;20030;-73
2022/02/15 03:58:04;;;;;;;13.40;3.03;;;6.70;99.90;;;;;;5115548;28;20016;-75
2022/02/15 04:00:29;;;;;;;13.13;2.92;;;6.70;99.90;;;;;;5114998;28;20540;-72
2022/02/15 04:02:55;;;;;;;10.70;2.33;;;6.70;99.90;;;;;;5114718;28;20111;-75
2022/02/15 04:05:22;;;;;;;11.93;2.13;;;6.70;99.90;;;;;;5115485;28;20079;-74
2022/02/15 04:07:48;;;;;;;8.68;2.08;;;6.70;99.90;;;;;;5115425;28;20485;-74
2022/02/15 04:10:14;;;;;;;5.75;1.83;;;6.70;99.90;;;;;;5113420;28;20126;-73
2022/02/15 04:12:40;;;;;;;9.63;2.33;;;6.70;99.90;;;;;;5113420;28;20024;-74
2022/02/15 04:15:06;;;;;;;9.52;1.83;;;6.70;99.90;;;;;;5114665;28;20462;-74
2022/02/15 04:17:32;;;;;;;10.23;2.70;;;6.80;99.90;;;;;;5114923;28;20020;-73
2022/02/15 04:19:58;;;;;;;9.98;2.20;;;6.80;99.90;;;;;;5114599;28;20036;-74
2022/02/15 04:22:24;;;;;;;11.25;2.30;;;6.80;99.90;;;;;;5114818;28;20377;-76
2022/02/15 04:24:49;;;;;;;14.50;2.30;;;6.70;99.90;;;;;;5114527;28;20024;-76
2022/02/15 04:27:18;;;;;;;9.18;2.30;;;6.70;99.90;;;;;;5115029;28;20019;-75
2022/02/15 04:29:44;;;;;;;12.35;1.73;;;6.80;99.90;;;;;;5114278;28;20080;-74
2022/02/15 04:32:10;;;;;;;11.48;2.20;;;6.80;99.90;;;;;;5114415;28;20103;-75
2022/02/15 04:34:36;;;;;;;12.90;2.30;;;6.80;99.90;;;;;;5114642;28;20020;-73
2022/02/15 04:37:02;;;;;;;14.85;2.58;;;6.80;99.90;;;;;;5114586;28;20025;-75
2022/02/15 04:39:28;;;;;;;13.65;2.80;;;6.90;99.90;;;;;;5114225;28;20024;-75
2022/02/15 04:41:54;;;;;;;19.67;3.00;;;6.90;99.90;;;;;;5114196;28;20078;-74
2022/02/15 04:44:19;;;;;;;10.77;2.60;;;6.90;99.90;;;;;;5114160;28;20020;-75
2022/02/15 04:46:45;;;;;;;12.00;2.65;;;7.00;99.90;;;;;;5114389;28;20019;-74
2022/02/15 04:49:11;;;;;;;8.68;2.00;;;7.00;99.90;;;;;;5114321;28;20590;-74
2022/02/15 04:51:36;;;;;;;12.07;2.42;;;7.00;99.90;;;;;;5114247;28;20028;-74
2022/02/15 04:54:02;;;;;;;13.48;2.90;;;7.00;99.90;;;;;;5114442;28;20088;-73
2022/02/15 04:56:28;;;;;;;10.50;2.67;;;7.00;99.90;;;;;;5114576;28;20043;-73
2022/02/15 04:58:53;;;;;;;9.02;2.08;;;7.00;99.90;;;;;;5114255;28;20493;-74
2022/02/15 05:01:19;;;;;;;13.02;2.58;;;7.00;99.90;;;;;;5113916;28;20103;-75
2022/02/15 05:03:45;;;;;;;15.10;2.45;;;7.00;99.90;;;;;;5113698;28;20045;-74
2022/02/15 05:06:11;;;;;;;13.80;2.75;;;7.00;99.90;;;;;;5113738;28;20031;-73
2022/02/15 05:08:36;;;;;;;12.75;2.92;;;7.00;99.90;;;;;;5111834;28;20042;-74
2022/02/15 05:11:02;;;;;;;14.10;2.85;;;7.00;99.90;;;;;;5112390;28;20028;-75
2022/02/15 05:13:28;;;;;;;11.30;3.00;;;7.10;99.90;;;;;;5113709;28;20098;-74
2022/02/15 05:15:53;;;;;;;13.00;2.78;;;7.10;99.90;;;;;;5113987;28;20020;-74
2022/02/15 05:18:19;;;;;;;10.40;2.83;;;7.10;99.90;;;;;;5113675;28;20028;-72
2022/02/15 05:20:44;;;;;;;14.88;3.03;;;7.10;99.90;;;;;;5113647;28;20024;-73
2022/02/15 05:23:10;;;;;;;13.77;2.35;;;7.10;99.90;;;;;;5113910;28;20024;-76
2022/02/15 05:25:36;;;;;;;13.43;2.15;;;7.10;99.90;;;;;;5113577;28;20023;-73
2022/02/15 05:28:02;;;;;;;12.27;3.20;;;7.20;99.90;;;;;;5113574;28;20374;-74
2022/02/15 05:30:29;;;;;;;9.43;2.72;;;7.10;99.90;;;;;;5113434;28;20028;-75
2022/02/15 05:32:55;;;;;;;25.83;11.20;;;7.10;99.90;;;;;;5112292;28;20445;-73
2022/02/15 05:35:20;;;;;;;20.83;8.60;;;7.00;99.90;;;;;;5113566;28;20020;-75
2022/02/15 05:37:46;;;;;;;15.77;4.28;;;7.00;99.90;;;;;;5113513;28;20046;-74
2022/02/15 05:40:13;;;;;;;17.17;5.43;;;7.00;99.90;;;;;;5113536;28;20024;-72
2022/02/15 05:42:40;;;;;;;12.32;3.47;;;7.00;99.90;;;;;;5112227;28;20485;-72
2022/02/15 05:45:07;;;;;;;17.90;5.38;;;7.00;99.90;;;;;;5113430;28;20024;-73
2022/02/15 05:47:32;;;;;;;10.93;5.22;;;7.00;99.90;;;;;;5113447;28;20250;-73
2022/02/15 05:52:42;;;;;;;23.52;13.35;;;7.00;99.90;;;;;;5113692;28;20096;-74
2022/02/15 05:55:08;;;;;;;29.50;18.33;;;6.90;99.90;;;;;;5113371;28;20061;-74
2022/02/15 05:57:34;;;;;;;20.83;10.48;;;7.00;99.90;;;;;;5113872;28;20023;-73
2022/02/15 06:00:00;;;;;;;17.90;6.25;;;7.00;99.90;;;;;;5113333;28;20016;-74
2022/02/15 06:02:26;;;;;;;13.00;3.00;;;7.10;99.90;;;;;;5113302;28;20028;-72
2022/02/15 06:04:52;;;;;;;16.15;3.47;;;7.10;99.90;;;;;;5111526;28;20058;-74
2022/02/15 06:07:18;;;;;;;17.63;6.28;;;7.00;99.90;;;;;;5113530;28;20047;-74
2022/02/15 06:09:43;;;;;;;14.68;3.13;;;7.00;99.90;;;;;;5113184;28;20057;-75
2022/02/15 06:12:09;;;;;;;18.45;6.70;;;7.10;99.90;;;;;;5113184;28;20024;-73
2022/02/15 06:14:35;;;;;;;19.50;7.47;;;7.10;99.90;;;;;;5113723;28;20499;-74
2022/02/15 06:17:01;;;;;;;13.48;3.53;;;7.10;99.90;;;;;;5113187;28;20027;-73
2022/02/15 06:19:28;;;;;;;14.38;5.13;;;7.10;99.90;;;;;;5115855;28;20092;-75
2022/02/15 06:21:54;;;;;;;11.93;5.28;;;7.10;99.90;;;;;;5117428;28;20023;-74
2022/02/15 06:24:20;;;;;;;20.75;4.72;;;7.10;99.90;;;;;;5116863;28;20049;-74
2022/02/15 06:26:46;;;;;;;12.93;2.63;;;7.20;99.90;;;;;;5116847;28;20102;-74
2022/02/15 06:29:12;;;;;;;11.70;4.10;;;7.20;99.90;;;;;;5116609;28;20028;-74
2022/02/15 06:31:38;;;;;;;10.70;2.83;;;7.10;99.90;;;;;;5116683;28;20028;-75
2022/02/15 06:34:07;;;;;;;14.60;4.00;;;7.10;99.90;;;;;;5116695;28;20047;-76
2022/02/15 06:36:33;;;;;;;12.70;3.72;;;7.10;99.90;;;;;;5116867;28;20028;-75
2022/02/15 06:38:59;;;;;;;13.48;3.72;;;7.10;99.90;;;;;;5116589;28;20012;-72
2022/02/15 06:41:24;;;;;;;13.68;4.88;;;7.10;99.90;;;;;;5117144;28;20023;-74
2022/02/15 06:43:53;;;;;;;17.60;4.20;;;7.00;99.90;;;;;;5116474;28;20027;-74
2022/02/15 06:46:19;;;;;;;27.10;11.77;;;7.00;99.90;;;;;;5116431;28;20024;-74
2022/02/15 06:48:44;;;;;;;35.22;20.40;;;7.00;99.90;;;;;;5116935;28;20023;-74
2022/02/15 06:51:10;;;;;;;35.50;18.23;;;7.00;99.90;;;;;;5116546;28;20208;-74
2022/02/15 06:53:36;;;;;;;20.13;8.02;;;7.00;99.90;;;;;;5116321;27;20024;-75
2022/02/15 06:56:02;;;;;;;16.02;5.32;;;7.00;99.90;;;;;;5114914;28;20549;-72
2022/02/15 06:58:28;;;;;;;15.93;6.28;;;7.00;99.90;;;;;;5116242;28;20473;-74
2022/02/15 07:00:54;;;;;;;13.30;4.38;;;7.00;99.90;;;;;;5115133;28;20023;-75
2022/02/15 07:03:19;;;;;;;13.88;4.18;;;7.00;99.90;;;;;;5114668;28;20050;-73
2022/02/15 07:05:45;;;;;;;11.55;4.40;;;6.90;99.90;;;;;;5116056;28;20114;-74
2022/02/15 07:08:11;;;;;;;16.52;3.72;;;6.90;99.90;;;;;;5115998;28;20026;-75
2022/02/15 07:10:36;;;;;;;13.15;3.20;;;6.90;99.90;;;;;;5115932;28;20038;-74
2022/02/15 07:13:03;;;;;;;14.38;3.38;;;6.90;99.90;;;;;;5116165;28;20022;-74
2022/02/15 07:15:29;;;;;;;10.60;3.00;;;6.90;99.90;;;;;;5115933;27;20053;-74
2022/02/15 07:17:57;;;;;;;10.75;2.88;;;6.90;99.90;;;;;;5115838;28;20008;-74
2022/02/15 07:20:23;;;;;;;14.43;5.07;;;7.00;99.90;;;;;;5116085;28;20027;-75
2022/02/15 07:22:49;;;;;;;15.27;4.97;;;7.00;99.90;;;;;;5116025;28;20097;-75
2022/02/15 07:25:15;;;;;;;12.52;3.70;;;7.00;99.90;;;;;;5116279;28;20096;-75
2022/02/15 07:27:41;;;;;;;11.85;4.30;;;7.10;99.90;;;;;;5115733;28;20545;-73
2022/02/15 07:30:07;;;;;;;21.75;6.07;;;7.20;99.90;;;;;;5114770;28;20028;-75
2022/02/15 07:32:33;;;;;;;15.07;4.20;;;7.10;99.90;;;;;;5115597;28;20024;-75
2022/02/15 07:34:59;;;;;;;14.65;4.55;;;7.20;99.90;;;;;;5115577;28;20026;-74
2022/02/15 07:37:25;;;;;;;18.65;5.72;;;7.20;99.90;;;;;;5115518;28;20023;-74
2022/02/15 07:39:52;;;;;;;15.10;4.43;;;7.20;99.90;;;;;;5115448;28;20061;-74
2022/02/15 07:42:18;;;;;;;14.93;4.95;;;7.20;99.90;;;;;;5115695;28;20024;-75
2022/02/15 07:44:44;;;;;;;22.98;9.38;;;7.30;99.90;;;;;;5115314;28;20548;-74
2022/02/15 07:47:10;;;;;;;12.77;3.35;;;7.50;99.90;;;;;;5115245;28;20043;-74
2022/02/15 07:49:35;;;;;;;10.48;3.00;;;7.50;99.90;;;;;;5115180;28;20081;-73
2022/02/15 07:52:02;;;;;;;12.02;4.28;;;7.60;99.90;;;;;;5113912;28;20016;-75
2022/02/15 07:54:28;;;;;;;15.07;3.35;;;7.60;99.90;;;;;;5115040;28;20500;-73
2022/02/15 07:56:53;;;;;;;19.05;8.45;;;7.70;99.90;;;;;;5115054;28;20020;-76
2022/02/15 07:59:19;;;;;;;20.73;6.65;;;7.80;99.90;;;;;;5114857;28;20514;-74
2022/02/15 08:01:45;;;;;;;17.13;5.10;;;7.80;99.90;;;;;;5115031;28;20028;-73
2022/02/15 08:04:13;;;;;;;18.08;10.30;;;7.80;99.90;;;;;;5114988;28;20055;-74
2022/02/15 08:06:39;;;;;;;17.05;10.23;;;7.80;99.90;;;;;;5115395;28;20016;-73
2022/02/15 08:09:05;;;;;;;12.52;4.78;;;7.90;99.90;;;;;;5114953;27;20054;-75
2022/02/15 08:11:38;;;;;;;15.98;4.35;;;7.90;99.90;;;;;;5109175;28;20730;-80
2022/02/15 08:14:04;;;;;;;12.25;5.28;;;7.90;99.90;;;;;;5093985;28;20055;-79
2022/02/15 08:16:30;;;;;;;17.73;4.13;;;8.00;99.90;;;;;;5094514;28;20463;-79
2022/02/15 08:18:55;;;;;;;9.57;3.33;;;8.00;99.90;;;;;;5095954;28;20028;-79
2022/02/15 08:21:21;;;;;;;12.93;3.35;;;8.00;99.90;;;;;;5099865;28;20031;-78
2022/02/15 08:23:47;;;;;;;16.23;3.58;;;8.00;99.90;;;;;;5114020;28;20485;-78
2022/02/15 08:26:12;;;;;;;15.88;4.20;;;8.10;99.90;;;;;;5114442;28;20028;-80
2022/02/15 08:28:43;;;;;;;15.43;3.30;;;8.10;99.90;;;;;;5114139;28;20111;-79
2022/02/15 08:31:10;;;;;;;15.38;5.97;;;8.10;99.90;;;;;;5098114;28;20026;-78
2022/02/15 08:33:37;;;;;;;12.60;5.10;;;8.10;99.90;;;;;;5112275;28;20020;-80
2022/02/15 08:36:04;;;;;;;13.27;5.07;;;8.10;99.90;;;;;;5114341;28;20023;-80
2022/02/15 08:38:33;;;;;;;17.98;8.13;;;8.20;99.90;;;;;;5111902;28;20444;-81
2022/02/15 08:41:00;;;;;;;10.82;3.58;;;8.20;99.90;;;;;;5114181;28;20026;-78
2022/02/15 08:43:26;;;;;;;20.08;7.47;;;8.20;99.90;;;;;;5093465;28;20032;-78
2022/02/15 08:45:52;;;;;;;12.93;5.18;;;8.20;99.90;;;;;;5102427;28;20508;-78
2022/02/15 08:48:17;;;;;;;12.60;4.07;;;8.30;99.90;;;;;;5114018;28;20032;-79
2022/02/15 08:50:43;;;;;;;17.02;3.92;;;8.30;99.90;;;;;;5113572;28;20028;-78
2022/02/15 08:53:09;;;;;;;12.68;4.85;;;8.30;99.90;;;;;;5102429;28;20031;-75
2022/02/15 08:55:34;;;;;;;11.85;3.83;;;8.40;99.90;;;;;;5093610;28;20020;-80
2022/02/15 08:58:00;;;;;;;16.80;2.95;;;8.50;99.90;;;;;;5093615;28;20128;-77
2022/02/15 09:00:26;;;;;;;13.63;4.10;;;8.50;99.90;;;;;;5093554;28;20028;-76
2022/02/15 09:02:52;;;;;;;14.63;3.45;;;8.60;99.90;;;;;;5098977;28;20019;-82
2022/02/15 09:05:17;;;;;;;10.80;2.53;;;8.70;99.90;;;;;;5114386;28;20031;-80
2022/02/15 09:07:43;;;;;;;17.35;3.30;;;8.80;99.90;;;;;;5113431;28;20106;-82
2022/02/15 09:10:09;;;;;;;11.82;2.58;;;8.90;99.90;;;;;;5106670;28;20513;-83
2022/02/15 09:12:35;;;;;;;10.95;2.65;;;9.00;99.90;;;;;;5097240;28;20047;-83
2022/02/15 09:15:01;;;;;;;10.50;3.03;;;9.00;99.90;;;;;;5114024;28;20019;-82
2022/02/15 09:17:26;;;;;;;11.60;3.28;;;9.20;99.90;;;;;;5113177;28;20052;-81
2022/02/15 09:19:52;;;;;;;15.77;3.47;;;9.20;99.90;;;;;;5114017;28;20031;-80
2022/02/15 09:22:18;;;;;;;11.93;3.72;;;9.30;99.90;;;;;;5112840;28;20027;-82
2022/02/15 09:24:45;;;;;;;11.77;3.00;;;9.40;99.90;;;;;;5112460;28;20024;-84
2022/02/15 09:27:11;;;;;;;10.77;3.03;;;9.40;99.90;;;;;;5113275;28;20031;-80
2022/02/15 09:29:36;;;;;;;11.90;2.85;;;9.40;99.90;;;;;;5113892;28;20446;-80
2022/02/15 09:32:03;;;;;;;12.27;3.00;;;9.40;99.90;;;;;;5113593;28;20560;-79
2022/02/15 09:34:28;;;;;;;12.45;3.20;;;9.50;99.90;;;;;;5109490;28;20051;-80
2022/02/15 09:36:54;;;;;;;11.00;3.17;;;9.50;99.90;;;;;;5111594;28;20477;-80
2022/02/15 09:39:20;;;;;;;19.48;3.67;;;9.50;99.90;;;;;;5114051;28;20055;-81
2022/02/15 09:41:46;;;;;;;11.27;2.78;;;9.50;99.90;;;;;;5101532;28;20032;-81
2022/02/15 09:44:13;;;;;;;6.82;2.17;;;9.60;99.90;;;;;;5096684;28;20398;-76
2022/02/15 09:46:42;;;;;;;12.48;2.75;;;9.70;99.90;;;;;;5113649;28;20528;-82
2022/02/15 09:49:48;;;;;;;12.05;2.45;;;9.70;99.90;;;;;;5098212;28;20028;-80
2022/02/15 09:51:54;;;;;;;11.80;2.85;;;9.70;99.90;;;;;;5092594;28;20512;-83
2022/02/15 09:54:20;;;;;;;6.57;2.40;;;9.80;99.90;;;;;;5098386;28;20015;-82
2022/02/15 09:56:46;;;;;;;14.82;3.40;;;9.80;99.90;;;;;;5108690;28;20035;-87
2022/02/15 09:59:15;;;;;;;9.15;2.53;;;9.80;99.90;;;;;;5097010;28;20424;-82
2022/02/15 10:01:41;;;;;;;11.38;2.47;;;9.80;99.90;;;;;;5096797;28;20030;-84
2022/02/15 10:04:08;;;;;;;12.43;3.45;;;9.80;99.90;;;;;;5096735;28;20039;-80
2022/02/15 10:06:35;;;;;;;12.20;2.63;;;9.80;99.90;;;;;;5103025;28;20079;-83
2022/02/15 10:09:03;;;;;;;9.10;2.30;;;9.90;99.90;;;;;;5100202;28;20024;-77
2022/02/15 10:11:35;;;;;;;14.05;2.75;;;10.00;99.90;;;;;;5096470;28;20024;-77
2022/02/15 10:14:01;;;;;;;10.75;2.78;;;10.10;99.90;;;;;;5097029;28;20103;-79
2022/02/15 10:16:28;;;;;;;10.10;2.42;;;10.10;99.90;;;;;;5102171;28;20107;-79
2022/02/15 10:19:00;;;;;;;8.90;2.33;;;10.10;99.90;;;;;;5101358;28;20423;-79
2022/02/15 10:21:29;;;;;;;11.77;2.17;;;10.20;99.90;;;;;;5117027;28;20038;-81
2022/02/15 10:23:56;;;;;;;16.70;4.00;;;10.20;99.90;;;;;;5116893;28;20029;-79
2022/02/15 10:26:22;;;;;;;12.10;2.80;;;10.20;99.90;;;;;;5096750;28;20028;-81
2022/02/15 10:28:48;;;;;;;12.05;2.05;;;10.20;99.90;;;;;;5096145;28;20032;-80
2022/02/15 10:31:15;;;;;;;11.85;2.33;;;10.20;99.90;;;;;;5096868;28;20024;-81
2022/02/15 10:33:45;;;;;;;10.63;2.33;;;10.30;99.90;;;;;;5109337;28;20031;-80
2022/02/15 10:36:13;;;;;;;12.60;2.38;;;10.30;99.90;;;;;;5116808;28;20023;-78
2022/02/15 10:38:45;;;;;;;10.27;2.53;;;10.30;99.90;;;;;;5102847;28;20369;-80
2022/02/15 10:41:13;;;;;;;8.90;2.33;;;10.40;99.90;;;;;;5101844;28;20566;-85
2022/02/15 10:43:49;;;;;;;12.10;2.25;;;10.40;99.90;;;;;;5116525;27;20020;-82
2022/02/15 10:46:20;;;;;;;11.50;2.53;;;10.50;99.90;;;;;;5115863;28;20038;-81
2022/02/15 10:48:46;;;;;;;12.15;2.60;;;10.50;99.90;;;;;;5104160;28;20106;-76
2022/02/15 10:51:14;;;;;;;14.48;3.85;;;10.60;99.90;;;;;;5095942;28;20024;-81
2022/02/15 10:53:40;;;;;;;5.80;2.13;;;10.60;99.90;;;;;;5106573;28;20389;-79
2022/02/15 10:56:06;;;;;;;9.32;2.75;;;10.70;99.90;;;;;;5116249;28;20028;-79
2022/02/15 10:58:33;;;;;;;11.05;3.00;;;10.70;99.90;;;;;;5116059;28;20081;-78
2022/02/15 11:01:09;;;;;;;13.35;2.63;;;10.70;99.90;;;;;;5116464;28;20049;-81
2022/02/15 11:03:38;;;;;;;15.23;5.63;;;10.80;99.90;;;;;;5115564;28;20047;-78
2022/02/15 11:06:05;;;;;;;15.43;3.17;;;10.80;99.90;;;;;;5114040;28;20027;-77
2022/02/15 11:08:35;;;;;;;14.18;3.72;;;10.90;99.90;;;;;;5112096;28;20020;-77
2022/02/15 11:11:13;;;;;;;12.52;2.33;;;10.90;99.90;;;;;;5095747;28;20038;-83
2022/02/15 11:13:40;;;;;;;10.82;2.10;;;11.00;99.90;;;;;;5099172;28;20027;-76
2022/02/15 11:16:13;;;;;;;13.60;2.90;;;11.00;99.90;;;;;;5116290;28;20023;-79
2022/02/15 11:18:40;;;;;;;11.98;2.60;;;11.00;99.90;;;;;;5104030;27;20027;-79
2022/02/15 11:21:07;;;;;;;14.85;2.35;;;11.00;99.90;;;;;;5106680;28;20025;-80
2022/02/15 11:23:36;;;;;;;11.68;3.15;;;11.00;99.90;;;;;;5108431;28;20035;-77
2022/02/15 11:26:10;;;;;;;15.40;3.38;;;11.00;99.90;;;;;;5115769;28;20031;-75
2022/02/15 11:28:49;;;;;;;11.38;2.53;;;11.00;99.90;;;;;;5116396;28;20027;-76
2022/02/15 11:31:39;;;;;;;9.82;3.30;;;11.00;99.90;;;;;;5115871;28;20038;-76
2022/02/15 11:34:09;;;;;;;13.80;2.75;;;10.90;99.90;;;;;;5115911;27;20024;-76
2022/02/15 11:36:51;;;;;;;7.57;2.45;;;10.90;99.90;;;;;;5116404;27;20043;-76
2022/02/15 11:39:20;;;;;;;5.88;2.00;;;10.90;99.90;;;;;;5115953;28;20031;-75
2022/02/15 11:41:54;;;;;;;10.85;2.45;;;10.90;99.90;;;;;;5113923;28;20114;-76
2022/02/15 11:44:29;;;;;;;8.95;1.90;;;11.00;99.90;;;;;;5111908;28;20030;-76
2022/02/15 11:46:55;;;;;;;12.98;2.92;;;11.00;99.90;;;;;;5113775;28;20107;-75
2022/02/15 11:49:23;;;;;;;10.95;2.70;;;11.00;99.90;;;;;;5113844;28;20094;-75
2022/02/15 11:51:49;;;;;;;12.68;2.50;;;11.10;99.90;;;;;;5113136;28;20051;-75
2022/02/15 11:54:21;;;;;;;10.10;2.80;;;11.10;99.90;;;;;;5114317;28;20038;-75
2022/02/15 11:56:52;;;;;;;11.20;2.97;;;11.20;99.90;;;;;;5114987;28;20023;-75
2022/02/15 11:59:22;;;;;;;7.20;2.22;;;11.20;99.90;;;;;;5115101;28;20506;-75
2022/02/15 12:01:56;;;;;;;10.73;2.65;;;11.20;99.90;;;;;;5115020;28;20051;-75
2022/02/15 12:04:22;;;;;;;12.95;2.92;;;11.30;99.90;;;;;;5114798;28;20039;-75
2022/02/15 12:06:48;;;;;;;13.68;3.17;;;11.30;99.90;;;;;;5114927;28;20034;-75
2022/02/15 12:09:15;;;;;;;14.80;3.88;;;11.40;99.90;;;;;;5113577;28;20081;-75
2022/02/15 12:11:43;;;;;;;15.20;3.30;;;11.40;99.90;;;;;;5114715;28;20032;-75
2022/02/15 12:14:14;;;;;;;12.45;3.08;;;11.50;99.90;;;;;;5113457;28;20394;-75
2022/02/15 12:16:47;;;;;;;15.30;5.25;;;11.50;99.90;;;;;;5114416;28;20026;-75
2022/02/15 12:19:30;;;;;;;19.10;4.57;;;11.60;99.90;;;;;;5114645;28;20027;-75
2022/02/15 12:22:01;;;;;;;16.35;4.18;;;11.60;99.90;;;;;;5115210;28;20034;-75
2022/02/15 12:24:28;;;;;;;12.00;2.90;;;11.60;99.90;;;;;;5115175;28;20023;-76
2022/02/15 12:27:00;;;;;;;15.05;3.88;;;11.60;99.90;;;;;;5114792;28;20388;-75
2022/02/15 12:29:27;;;;;;;11.70;3.20;;;11.60;99.90;;;;;;5114815;28;20023;-76
2022/02/15 12:32:13;;;;;;;14.55;4.28;;;11.60;99.90;;;;;;5114351;27;20023;-75
2022/02/15 12:34:39;;;;;;;24.25;5.13;;;11.60;99.90;;;;;;5114250;28;20489;-75
2022/02/15 12:37:05;;;;;;;14.73;3.65;;;11.60;99.90;;;;;;5113074;28;20489;-75
2022/02/15 12:39:37;;;;;;;23.95;4.38;;;11.60;99.90;;;;;;5114602;28;20103;-75
2022/02/15 12:42:10;;;;;;;18.27;5.07;;;11.60;99.90;;;;;;5114569;28;20545;-76
2022/02/15 12:44:36;;;;;;;15.70;3.25;;;11.60;99.90;;;;;;5114514;28;20436;-75
2022/02/15 12:47:02;;;;;;;11.38;2.63;;;11.70;99.90;;;;;;5114168;28;20366;-75
2022/02/15 12:49:28;;;;;;;10.55;3.10;;;11.80;99.90;;;;;;5114105;28;20031;-75
2022/02/15 12:51:53;;;;;;;16.52;5.25;;;11.80;99.90;;;;;;5112721;28;20031;-75
2022/02/15 12:54:20;;;;;;;15.82;3.72;;;11.80;99.90;;;;;;5113978;28;20135;-75